aviador You're here:

KBDR Decoded Metar

STRATFORD in CT, USA
Report Time2018-01-20 10:52:00
UTC Time2018-01-20 11:12:29
Flight Rules vfr VFR
Wind230° at 08 kt
W.Decomp.*RWY 24: 8.0 kt HW 0.4 kt RCW
RWY 29: 5.5 kt HW 5.9 kt LCW
W.Rank230° ranks 1
Current wind is above 230° avg. (7.9)
Visibility9999 m
Phenomena:N/A
Clouds:N/A
Expected CloudBase > 1,600 ft AGL from Temp-Dew spread
CeilingNone
Temp02°C (ISA -13)
Dew Point-2°C (75% RH)
AAT-3.1°C
QNH1010 hPa
Density Alt-1,378 ft
Elevation23 ft
Report Wrong Elevation
Raw Report
KBDR 201052Z AUTO 23008KT 10SM CLR 02/M02 A2983 RMK AO2 SLP102
T00171022=

Extra information for KBDR:More info

Metar Taf Metar & Taf Last 4 Metars F.Rules Stats Wind Profile Meteogram Temp Stats Airport Information Weather charts Add Link Nearby VenuesMetar ALERT Operation Metar Decoded Social comments

AIRNAV info for KBDR